sensor_id;sensor_type;location;lat;lon;timestamp;P1;durP1;ratioP1;P2;durP2;ratioP2
37781;SDS011;23621;50.878;4.584;2022-10-16T00:01:29;1.50;;;1.35;;
37781;SDS011;23621;50.878;4.584;2022-10-16T00:03:57;1.05;;;0.95;;
37781;SDS011;23621;50.878;4.584;2022-10-16T00:06:25;1.17;;;1.08;;
37781;SDS011;23621;50.878;4.584;2022-10-16T00:08:53;1.67;;;1.10;;
37781;SDS011;23621;50.878;4.584;2022-10-16T00:11:24;1.20;;;1.13;;
37781;SDS011;23621;50.878;4.584;2022-10-16T00:13:57;2.45;;;1.23;;
37781;SDS011;23621;50.878;4.584;2022-10-16T00:16:26;1.17;;;1.08;;
37781;SDS011;23621;50.878;4.584;2022-10-16T00:18:54;1.58;;;1.10;;
37781;SDS011;23621;50.878;4.584;2022-10-16T00:21:22;1.45;;;0.90;;
37781;SDS011;23621;50.878;4.584;2022-10-16T00:23:53;1.00;;;1.00;;
37781;SDS011;23621;50.878;4.584;2022-10-16T00:26:21;2.17;;;1.13;;
37781;SDS011;23621;50.878;4.584;2022-10-16T00:28:49;0.90;;;0.90;;
37781;SDS011;23621;50.878;4.584;2022-10-16T00:31:17;1.25;;;1.10;;
37781;SDS011;23621;50.878;4.584;2022-10-16T00:33:46;1.15;;;1.00;;
37781;SDS011;23621;50.878;4.584;2022-10-16T00:36:14;1.20;;;1.10;;
37781;SDS011;23621;50.878;4.584;2022-10-16T00:38:43;1.92;;;1.20;;
37781;SDS011;23621;50.878;4.584;2022-10-16T00:41:12;1.20;;;1.10;;
37781;SDS011;23621;50.878;4.584;2022-10-16T00:43:47;1.23;;;1.13;;
37781;SDS011;23621;50.878;4.584;2022-10-16T00:46:15;1.08;;;1.02;;
37781;SDS011;23621;50.878;4.584;2022-10-16T00:48:52;2.78;;;1.15;;
37781;SDS011;23621;50.878;4.584;2022-10-16T00:51:23;1.38;;;1.27;;
37781;SDS011;23621;50.878;4.584;2022-10-16T00:53:54;3.00;;;1.30;;
37781;SDS011;23621;50.878;4.584;2022-10-16T00:56:22;2.38;;;1.20;;
37781;SDS011;23621;50.878;4.584;2022-10-16T00:58:49;1.50;;;1.20;;
37781;SDS011;23621;50.878;4.584;2022-10-16T01:01:16;1.50;;;1.40;;
37781;SDS011;23621;50.878;4.584;2022-10-16T01:03:43;1.20;;;1.10;;
37781;SDS011;23621;50.878;4.584;2022-10-16T01:08:56;1.42;;;1.10;;
37781;SDS011;23621;50.878;4.584;2022-10-16T01:12:08;1.30;;;1.00;;
37781;SDS011;23621;50.878;4.584;2022-10-16T01:20:21;1.17;;;1.15;;
37781;SDS011;23621;50.878;4.584;2022-10-16T01:23:15;1.70;;;1.52;;
37781;SDS011;23621;50.878;4.584;2022-10-16T01:26:06;1.23;;;1.13;;
37781;SDS011;23621;50.878;4.584;2022-10-16T01:28:50;0.98;;;0.98;;
37781;SDS011;23621;50.878;4.584;2022-10-16T01:31:22;2.00;;;1.25;;
37781;SDS011;23621;50.878;4.584;2022-10-16T01:33:57;1.40;;;1.30;;
37781;SDS011;23621;50.878;4.584;2022-10-16T01:36:37;1.83;;;1.15;;
37781;SDS011;23621;50.878;4.584;2022-10-16T01:39:08;1.10;;;1.10;;
37781;SDS011;23621;50.878;4.584;2022-10-16T01:41:38;1.15;;;1.15;;
37781;SDS011;23621;50.878;4.584;2022-10-16T01:44:31;1.40;;;1.30;;
37781;SDS011;23621;50.878;4.584;2022-10-16T01:46:59;1.75;;;1.30;;
37781;SDS011;23621;50.878;4.584;2022-10-16T01:49:28;1.75;;;1.30;;
37781;SDS011;23621;50.878;4.584;2022-10-16T01:51:59;1.25;;;1.20;;
37781;SDS011;23621;50.878;4.584;2022-10-16T01:54:28;1.27;;;1.20;;
37781;SDS011;23621;50.878;4.584;2022-10-16T01:56:59;1.38;;;1.23;;
37781;SDS011;23621;50.878;4.584;2022-10-16T01:59:29;1.48;;;1.15;;
37781;SDS011;23621;50.878;4.584;2022-10-16T02:01:59;1.30;;;1.20;;
37781;SDS011;23621;50.878;4.584;2022-10-16T02:04:34;1.30;;;1.20;;
37781;SDS011;23621;50.878;4.584;2022-10-16T02:07:09;2.55;;;1.10;;
37781;SDS011;23621;50.878;4.584;2022-10-16T02:09:36;1.23;;;1.10;;
37781;SDS011;23621;50.878;4.584;2022-10-16T02:12:23;1.38;;;1.17;;
37781;SDS011;23621;50.878;4.584;2022-10-16T02:14:54;1.63;;;1.10;;
37781;SDS011;23621;50.878;4.584;2022-10-16T02:17:21;1.30;;;1.20;;
37781;SDS011;23621;50.878;4.584;2022-10-16T02:19:49;1.85;;;1.30;;
37781;SDS011;23621;50.878;4.584;2022-10-16T02:22:21;1.30;;;1.20;;
37781;SDS011;23621;50.878;4.584;2022-10-16T02:25:04;2.00;;;1.30;;
37781;SDS011;23621;50.878;4.584;2022-10-16T02:30:15;2.10;;;1.27;;
37781;SDS011;23621;50.878;4.584;2022-10-16T02:32:48;1.42;;;1.20;;
37781;SDS011;23621;50.878;4.584;2022-10-16T02:35:17;1.55;;;1.30;;
37781;SDS011;23621;50.878;4.584;2022-10-16T02:37:46;1.30;;;1.20;;
37781;SDS011;23621;50.878;4.584;2022-10-16T02:40:15;3.00;;;1.30;;
37781;SDS011;23621;50.878;4.584;2022-10-16T02:42:49;3.35;;;1.40;;
37781;SDS011;23621;50.878;4.584;2022-10-16T02:45:20;2.00;;;1.50;;
37781;SDS011;23621;50.878;4.584;2022-10-16T02:47:48;1.40;;;1.30;;
37781;SDS011;23621;50.878;4.584;2022-10-16T02:50:15;1.40;;;1.30;;
37781;SDS011;23621;50.878;4.584;2022-10-16T02:52:42;1.75;;;1.55;;
37781;SDS011;23621;50.878;4.584;2022-10-16T02:55:09;1.92;;;1.52;;
37781;SDS011;23621;50.878;4.584;2022-10-16T02:57:36;1.38;;;1.20;;
37781;SDS011;23621;50.878;4.584;2022-10-16T03:00:04;1.50;;;1.40;;
37781;SDS011;23621;50.878;4.584;2022-10-16T03:02:31;2.63;;;1.20;;
37781;SDS011;23621;50.878;4.584;2022-10-16T03:04:58;2.30;;;1.10;;
37781;SDS011;23621;50.878;4.584;2022-10-16T03:07:25;2.80;;;1.58;;
37781;SDS011;23621;50.878;4.584;2022-10-16T03:09:52;1.65;;;1.55;;
37781;SDS011;23621;50.878;4.584;2022-10-16T03:12:21;1.75;;;1.25;;
37781;SDS011;23621;50.878;4.584;2022-10-16T03:14:48;1.52;;;1.40;;
37781;SDS011;23621;50.878;4.584;2022-10-16T03:17:14;1.30;;;1.20;;
37781;SDS011;23621;50.878;4.584;2022-10-16T03:19:43;1.33;;;1.23;;
37781;SDS011;23621;50.878;4.584;2022-10-16T03:22:10;1.45;;;1.35;;
37781;SDS011;23621;50.878;4.584;2022-10-16T03:24:37;1.77;;;1.55;;
37781;SDS011;23621;50.878;4.584;2022-10-16T03:27:04;1.50;;;1.40;;
37781;SDS011;23621;50.878;4.584;2022-10-16T03:29:31;3.00;;;1.35;;
37781;SDS011;23621;50.878;4.584;2022-10-16T03:31:59;2.10;;;1.50;;
37781;SDS011;23621;50.878;4.584;2022-10-16T03:34:26;1.52;;;1.40;;
37781;SDS011;23621;50.878;4.584;2022-10-16T03:36:54;1.92;;;1.50;;
37781;SDS011;23621;50.878;4.584;2022-10-16T03:39:20;1.83;;;1.45;;
37781;SDS011;23621;50.878;4.584;2022-10-16T03:41:47;2.22;;;1.63;;
37781;SDS011;23621;50.878;4.584;2022-10-16T03:44:14;1.58;;;1.30;;
37781;SDS011;23621;50.878;4.584;2022-10-16T03:46:41;2.65;;;1.70;;
37781;SDS011;23621;50.878;4.584;2022-10-16T03:49:08;4.15;;;1.50;;
37781;SDS011;23621;50.878;4.584;2022-10-16T03:51:35;2.28;;;1.55;;
37781;SDS011;23621;50.878;4.584;2022-10-16T03:54:02;1.70;;;1.60;;
37781;SDS011;23621;50.878;4.584;2022-10-16T03:56:29;2.90;;;1.60;;
37781;SDS011;23621;50.878;4.584;2022-10-16T03:58:55;2.95;;;1.67;;
37781;SDS011;23621;50.878;4.584;2022-10-16T04:01:22;2.13;;;1.30;;
37781;SDS011;23621;50.878;4.584;2022-10-16T04:03:49;2.22;;;1.55;;
37781;SDS011;23621;50.878;4.584;2022-10-16T04:06:16;1.58;;;1.30;;
37781;SDS011;23621;50.878;4.584;2022-10-16T04:08:43;2.40;;;1.60;;
37781;SDS011;23621;50.878;4.584;2022-10-16T04:11:10;2.00;;;1.50;;
37781;SDS011;23621;50.878;4.584;2022-10-16T04:13:37;1.40;;;1.30;;
37781;SDS011;23621;50.878;4.584;2022-10-16T04:16:04;1.63;;;1.42;;
37781;SDS011;23621;50.878;4.584;2022-10-16T04:18:31;1.95;;;1.42;;
37781;SDS011;23621;50.878;4.584;2022-10-16T04:21:02;2.70;;;1.60;;
37781;SDS011;23621;50.878;4.584;2022-10-16T04:23:32;1.33;;;1.15;;
37781;SDS011;23621;50.878;4.584;2022-10-16T04:25:59;2.35;;;1.73;;
37781;SDS011;23621;50.878;4.584;2022-10-16T04:28:26;1.83;;;1.45;;
37781;SDS011;23621;50.878;4.584;2022-10-16T04:30:54;3.15;;;1.70;;
37781;SDS011;23621;50.878;4.584;2022-10-16T04:33:20;3.42;;;1.80;;
37781;SDS011;23621;50.878;4.584;2022-10-16T04:35:47;1.88;;;1.58;;
37781;SDS011;23621;50.878;4.584;2022-10-16T04:38:14;1.80;;;1.70;;
37781;SDS011;23621;50.878;4.584;2022-10-16T04:40:42;1.70;;;1.60;;
37781;SDS011;23621;50.878;4.584;2022-10-16T04:43:08;2.33;;;1.70;;
37781;SDS011;23621;50.878;4.584;2022-10-16T04:45:35;1.88;;;1.40;;
37781;SDS011;23621;50.878;4.584;2022-10-16T04:48:02;1.40;;;1.30;;
37781;SDS011;23621;50.878;4.584;2022-10-16T04:50:29;2.95;;;1.45;;
37781;SDS011;23621;50.878;4.584;2022-10-16T04:52:56;1.85;;;1.70;;
37781;SDS011;23621;50.878;4.584;2022-10-16T04:55:23;1.65;;;1.52;;
37781;SDS011;23621;50.878;4.584;2022-10-16T04:57:50;1.65;;;1.55;;
37781;SDS011;23621;50.878;4.584;2022-10-16T05:00:17;2.72;;;1.80;;
37781;SDS011;23621;50.878;4.584;2022-10-16T05:02:43;2.97;;;1.95;;
37781;SDS011;23621;50.878;4.584;2022-10-16T05:05:10;2.22;;;1.80;;
37781;SDS011;23621;50.878;4.584;2022-10-16T05:07:37;2.40;;;1.55;;
37781;SDS011;23621;50.878;4.584;2022-10-16T05:10:04;2.10;;;1.85;;
37781;SDS011;23621;50.878;4.584;2022-10-16T05:12:31;3.80;;;2.03;;
37781;SDS011;23621;50.878;4.584;2022-10-16T05:14:59;1.90;;;1.60;;
37781;SDS011;23621;50.878;4.584;2022-10-16T05:17:26;1.90;;;1.70;;
37781;SDS011;23621;50.878;4.584;2022-10-16T05:19:54;1.92;;;1.60;;
37781;SDS011;23621;50.878;4.584;2022-10-16T05:22:20;3.25;;;1.88;;
37781;SDS011;23621;50.878;4.584;2022-10-16T05:24:47;1.60;;;1.50;;
37781;SDS011;23621;50.878;4.584;2022-10-16T05:27:14;1.80;;;1.63;;
37781;SDS011;23621;50.878;4.584;2022-10-16T05:29:45;1.70;;;1.60;;
37781;SDS011;23621;50.878;4.584;2022-10-16T05:32:13;3.00;;;1.80;;
37781;SDS011;23621;50.878;4.584;2022-10-16T05:34:41;2.45;;;1.77;;
37781;SDS011;23621;50.878;4.584;2022-10-16T05:37:08;1.73;;;1.50;;
37781;SDS011;23621;50.878;4.584;2022-10-16T05:39:35;2.72;;;1.75;;
37781;SDS011;23621;50.878;4.584;2022-10-16T05:42:03;3.10;;;2.03;;
37781;SDS011;23621;50.878;4.584;2022-10-16T05:44:30;1.80;;;1.70;;
37781;SDS011;23621;50.878;4.584;2022-10-16T05:47:02;1.80;;;1.63;;
37781;SDS011;23621;50.878;4.584;2022-10-16T05:49:29;1.90;;;1.80;;
37781;SDS011;23621;50.878;4.584;2022-10-16T05:51:55;1.70;;;1.60;;
37781;SDS011;23621;50.878;4.584;2022-10-16T05:54:22;1.80;;;1.70;;
37781;SDS011;23621;50.878;4.584;2022-10-16T05:56:49;2.38;;;1.40;;
37781;SDS011;23621;50.878;4.584;2022-10-16T05:59:16;2.05;;;1.90;;
37781;SDS011;23621;50.878;4.584;2022-10-16T06:01:43;2.90;;;1.73;;
37781;SDS011;23621;50.878;4.584;2022-10-16T06:04:09;3.92;;;2.03;;
37781;SDS011;23621;50.878;4.584;2022-10-16T06:06:36;1.77;;;1.65;;
37781;SDS011;23621;50.878;4.584;2022-10-16T06:09:03;2.00;;;1.80;;
37781;SDS011;23621;50.878;4.584;2022-10-16T06:11:31;2.28;;;1.80;;
37781;SDS011;23621;50.878;4.584;2022-10-16T06:16:44;1.92;;;1.83;;
37781;SDS011;23621;50.878;4.584;2022-10-16T06:19:11;2.00;;;1.75;;
37781;SDS011;23621;50.878;4.584;2022-10-16T06:21:38;2.58;;;1.88;;
37781;SDS011;23621;50.878;4.584;2022-10-16T06:24:05;2.90;;;1.85;;
37781;SDS011;23621;50.878;4.584;2022-10-16T06:26:32;2.25;;;2.00;;
37781;SDS011;23621;50.878;4.584;2022-10-16T06:28:59;2.50;;;1.77;;
37781;SDS011;23621;50.878;4.584;2022-10-16T06:31:27;3.25;;;2.08;;
37781;SDS011;23621;50.878;4.584;2022-10-16T06:33:57;2.05;;;1.88;;
37781;SDS011;23621;50.878;4.584;2022-10-16T06:36:25;2.00;;;1.90;;
37781;SDS011;23621;50.878;4.584;2022-10-16T06:38:52;1.70;;;1.60;;
37781;SDS011;23621;50.878;4.584;2022-10-16T06:41:20;3.20;;;1.75;;
37781;SDS011;23621;50.878;4.584;2022-10-16T06:43:48;2.95;;;2.10;;
37781;SDS011;23621;50.878;4.584;2022-10-16T06:46:16;2.85;;;1.80;;
37781;SDS011;23621;50.878;4.584;2022-10-16T06:48:46;2.22;;;2.00;;
37781;SDS011;23621;50.878;4.584;2022-10-16T06:51:17;2.85;;;1.80;;
37781;SDS011;23621;50.878;4.584;2022-10-16T06:53:46;1.95;;;1.80;;
37781;SDS011;23621;50.878;4.584;2022-10-16T06:56:31;1.95;;;1.80;;
37781;SDS011;23621;50.878;4.584;2022-10-16T06:58:59;2.60;;;1.80;;
37781;SDS011;23621;50.878;4.584;2022-10-16T07:01:26;2.10;;;1.90;;
37781;SDS011;23621;50.878;4.584;2022-10-16T07:03:54;2.83;;;1.92;;
37781;SDS011;23621;50.878;4.584;2022-10-16T07:06:21;2.70;;;1.60;;
37781;SDS011;23621;50.878;4.584;2022-10-16T07:08:50;3.35;;;1.70;;
37781;SDS011;23621;50.878;4.584;2022-10-16T07:11:18;3.08;;;1.65;;
37781;SDS011;23621;50.878;4.584;2022-10-16T07:13:48;2.00;;;1.80;;
37781;SDS011;23621;50.878;4.584;2022-10-16T07:16:22;2.42;;;1.58;;
37781;SDS011;23621;50.878;4.584;2022-10-16T07:18:51;3.22;;;1.70;;
37781;SDS011;23621;50.878;4.584;2022-10-16T07:21:24;3.25;;;1.90;;
37781;SDS011;23621;50.878;4.584;2022-10-16T07:23:53;1.73;;;1.63;;
37781;SDS011;23621;50.878;4.584;2022-10-16T07:26:25;2.10;;;1.50;;
37781;SDS011;23621;50.878;4.584;2022-10-16T07:28:53;2.45;;;1.60;;
37781;SDS011;23621;50.878;4.584;2022-10-16T07:31:21;2.90;;;1.50;;
37781;SDS011;23621;50.878;4.584;2022-10-16T07:33:49;1.77;;;1.48;;
37781;SDS011;23621;50.878;4.584;2022-10-16T07:36:17;1.77;;;1.50;;
37781;SDS011;23621;50.878;4.584;2022-10-16T07:38:44;1.83;;;1.65;;
37781;SDS011;23621;50.878;4.584;2022-10-16T07:41:13;1.67;;;1.48;;
37781;SDS011;23621;50.878;4.584;2022-10-16T07:44:00;1.50;;;1.40;;
37781;SDS011;23621;50.878;4.584;2022-10-16T07:46:27;1.80;;;1.60;;
37781;SDS011;23621;50.878;4.584;2022-10-16T07:48:54;2.75;;;1.90;;
37781;SDS011;23621;50.878;4.584;2022-10-16T07:51:22;5.05;;;2.33;;
37781;SDS011;23621;50.878;4.584;2022-10-16T07:53:51;5.30;;;3.08;;
37781;SDS011;23621;50.878;4.584;2022-10-16T07:56:19;4.68;;;2.67;;
37781;SDS011;23621;50.878;4.584;2022-10-16T07:58:47;2.38;;;2.10;;
37781;SDS011;23621;50.878;4.584;2022-10-16T08:01:16;4.05;;;2.00;;
37781;SDS011;23621;50.878;4.584;2022-10-16T08:03:44;1.85;;;1.75;;
37781;SDS011;23621;50.878;4.584;2022-10-16T08:06:13;3.25;;;1.77;;
37781;SDS011;23621;50.878;4.584;2022-10-16T08:08:40;2.88;;;2.10;;
37781;SDS011;23621;50.878;4.584;2022-10-16T08:11:07;5.13;;;2.40;;
37781;SDS011;23621;50.878;4.584;2022-10-16T08:13:35;2.65;;;1.67;;
37781;SDS011;23621;50.878;4.584;2022-10-16T08:16:02;3.20;;;1.60;;
37781;SDS011;23621;50.878;4.584;2022-10-16T08:18:34;2.60;;;1.80;;
37781;SDS011;23621;50.878;4.584;2022-10-16T08:21:05;1.30;;;1.20;;
37781;SDS011;23621;50.878;4.584;2022-10-16T08:23:33;1.83;;;1.35;;
37781;SDS011;23621;50.878;4.584;2022-10-16T08:26:04;1.70;;;1.52;;
37781;SDS011;23621;50.878;4.584;2022-10-16T08:28:33;1.48;;;1.35;;
37781;SDS011;23621;50.878;4.584;2022-10-16T08:31:10;1.52;;;1.42;;
37781;SDS011;23621;50.878;4.584;2022-10-16T08:33:40;2.05;;;1.38;;
37781;SDS011;23621;50.878;4.584;2022-10-16T08:36:09;1.45;;;1.20;;
37781;SDS011;23621;50.878;4.584;2022-10-16T08:38:37;2.65;;;1.20;;
37781;SDS011;23621;50.878;4.584;2022-10-16T08:49:30;3.42;;;1.60;;
37781;SDS011;23621;50.878;4.584;2022-10-16T08:51:58;3.33;;;1.38;;
37781;SDS011;23621;50.878;4.584;2022-10-16T08:54:30;2.13;;;1.00;;
37781;SDS011;23621;50.878;4.584;2022-10-16T08:57:14;0.98;;;0.98;;
37781;SDS011;23621;50.878;4.584;2022-10-16T08:59:49;3.65;;;1.30;;
37781;SDS011;23621;50.878;4.584;2022-10-16T09:02:36;1.30;;;1.20;;
37781;SDS011;23621;50.878;4.584;2022-10-16T09:05:17;2.10;;;1.20;;
37781;SDS011;23621;50.878;4.584;2022-10-16T09:10:54;1.92;;;1.30;;
37781;SDS011;23621;50.878;4.584;2022-10-16T09:13:28;1.30;;;1.10;;
37781;SDS011;23621;50.878;4.584;2022-10-16T09:16:44;1.13;;;0.90;;
37781;SDS011;23621;50.878;4.584;2022-10-16T09:21:30;2.38;;;1.33;;
37781;SDS011;23621;50.878;4.584;2022-10-16T09:24:15;2.15;;;1.13;;
37781;SDS011;23621;50.878;4.584;2022-10-16T09:26:45;5.80;;;2.47;;
37781;SDS011;23621;50.878;4.584;2022-10-16T09:29:17;4.13;;;1.35;;
37781;SDS011;23621;50.878;4.584;2022-10-16T09:31:47;2.53;;;1.35;;
37781;SDS011;23621;50.878;4.584;2022-10-16T09:34:26;1.48;;;1.38;;
37781;SDS011;23621;50.878;4.584;2022-10-16T09:37:00;3.78;;;1.35;;
37781;SDS011;23621;50.878;4.584;2022-10-16T09:39:30;1.48;;;1.30;;
37781;SDS011;23621;50.878;4.584;2022-10-16T09:41:57;2.60;;;1.10;;
37781;SDS011;23621;50.878;4.584;2022-10-16T09:44:24;2.28;;;1.35;;
37781;SDS011;23621;50.878;4.584;2022-10-16T09:47:00;4.53;;;1.70;;
37781;SDS011;23621;50.878;4.584;2022-10-16T09:49:29;2.03;;;1.30;;
37781;SDS011;23621;50.878;4.584;2022-10-16T09:52:29;1.95;;;1.30;;
37781;SDS011;23621;50.878;4.584;2022-10-16T09:57:18;4.20;;;1.27;;
37781;SDS011;23621;50.878;4.584;2022-10-16T09:59:52;3.10;;;1.30;;
37781;SDS011;23621;50.878;4.584;2022-10-16T10:05:00;2.55;;;1.20;;
37781;SDS011;23621;50.878;4.584;2022-10-16T10:07:32;2.70;;;1.50;;
37781;SDS011;23621;50.878;4.584;2022-10-16T10:10:18;2.38;;;1.90;;
37781;SDS011;23621;50.878;4.584;2022-10-16T10:12:48;3.70;;;1.60;;
37781;SDS011;23621;50.878;4.584;2022-10-16T10:15:15;3.42;;;1.50;;
37781;SDS011;23621;50.878;4.584;2022-10-16T10:17:50;5.13;;;1.58;;
37781;SDS011;23621;50.878;4.584;2022-10-16T10:22:51;1.48;;;1.38;;
37781;SDS011;23621;50.878;4.584;2022-10-16T10:25:19;4.00;;;1.40;;
37781;SDS011;23621;50.878;4.584;2022-10-16T10:30:56;3.05;;;1.40;;
37781;SDS011;23621;50.878;4.584;2022-10-16T10:36:05;2.78;;;1.17;;
37781;SDS011;23621;50.878;4.584;2022-10-16T10:38:52;1.10;;;0.85;;
37781;SDS011;23621;50.878;4.584;2022-10-16T10:41:44;3.17;;;1.40;;
37781;SDS011;23621;50.878;4.584;2022-10-16T10:46:57;1.80;;;1.15;;
37781;SDS011;23621;50.878;4.584;2022-10-16T11:03:55;1.95;;;1.42;;
37781;SDS011;23621;50.878;4.584;2022-10-16T11:06:36;2.15;;;1.13;;
37781;SDS011;23621;50.878;4.584;2022-10-16T11:09:26;3.50;;;0.90;;
37781;SDS011;23621;50.878;4.584;2022-10-16T11:12:00;1.02;;;1.02;;
37781;SDS011;23621;50.878;4.584;2022-10-16T11:20:00;2.97;;;1.30;;
37781;SDS011;23621;50.878;4.584;2022-10-16T11:22:49;2.63;;;0.90;;
37781;SDS011;23621;50.878;4.584;2022-10-16T11:27:55;1.77;;;1.05;;
37781;SDS011;23621;50.878;4.584;2022-10-16T11:30:45;0.88;;;0.80;;
37781;SDS011;23621;50.878;4.584;2022-10-16T11:36:21;0.80;;;0.80;;
37781;SDS011;23621;50.878;4.584;2022-10-16T11:38:54;1.55;;;0.80;;
37781;SDS011;23621;50.878;4.584;2022-10-16T11:41:54;2.97;;;1.50;;
37781;SDS011;23621;50.878;4.584;2022-10-16T11:50:00;1.73;;;1.25;;
37781;SDS011;23621;50.878;4.584;2022-10-16T11:55:31;1.75;;;1.10;;
37781;SDS011;23621;50.878;4.584;2022-10-16T12:03:55;1.48;;;1.00;;
37781;SDS011;23621;50.878;4.584;2022-10-16T12:06:44;2.20;;;1.10;;
37781;SDS011;23621;50.878;4.584;2022-10-16T12:09:24;1.38;;;1.02;;
37781;SDS011;23621;50.878;4.584;2022-10-16T12:11:53;2.45;;;1.10;;
37781;SDS011;23621;50.878;4.584;2022-10-16T12:14:32;1.92;;;1.13;;
37781;SDS011;23621;50.878;4.584;2022-10-16T12:17:34;2.00;;;1.00;;
37781;SDS011;23621;50.878;4.584;2022-10-16T12:22:53;0.93;;;0.93;;
37781;SDS011;23621;50.878;4.584;2022-10-16T12:25:32;3.55;;;1.13;;
37781;SDS011;23621;50.878;4.584;2022-10-16T12:28:07;2.42;;;1.02;;
37781;SDS011;23621;50.878;4.584;2022-10-16T12:30:53;0.80;;;0.80;;
37781;SDS011;23621;50.878;4.584;2022-10-16T12:33:26;1.35;;;1.20;;
37781;SDS011;23621;50.878;4.584;2022-10-16T12:35:59;1.83;;;1.08;;
37781;SDS011;23621;50.878;4.584;2022-10-16T12:38:35;1.35;;;1.10;;
37781;SDS011;23621;50.878;4.584;2022-10-16T12:41:11;2.50;;;1.15;;
37781;SDS011;23621;50.878;4.584;2022-10-16T12:43:41;1.40;;;1.02;;
37781;SDS011;23621;50.878;4.584;2022-10-16T12:48:42;1.42;;;1.20;;
37781;SDS011;23621;50.878;4.584;2022-10-16T12:53:58;1.20;;;1.05;;
37781;SDS011;23621;50.878;4.584;2022-10-16T13:04:29;1.80;;;0.90;;
37781;SDS011;23621;50.878;4.584;2022-10-16T13:13:20;2.00;;;1.00;;
37781;SDS011;23621;50.878;4.584;2022-10-16T13:18:28;2.35;;;0.90;;
37781;SDS011;23621;50.878;4.584;2022-10-16T13:24:13;2.70;;;0.70;;
37781;SDS011;23621;50.878;4.584;2022-10-16T13:26:52;1.83;;;0.88;;
37781;SDS011;23621;50.878;4.584;2022-10-16T13:29:30;0.70;;;0.70;;
37781;SDS011;23621;50.878;4.584;2022-10-16T13:31:59;1.08;;;0.70;;
37781;SDS011;23621;50.878;4.584;2022-10-16T13:34:28;1.08;;;0.90;;
37781;SDS011;23621;50.878;4.584;2022-10-16T13:36:55;1.25;;;0.85;;
37781;SDS011;23621;50.878;4.584;2022-10-16T13:39:24;1.48;;;0.88;;
37781;SDS011;23621;50.878;4.584;2022-10-16T13:44:44;1.10;;;1.08;;
37781;SDS011;23621;50.878;4.584;2022-10-16T13:47:16;2.47;;;1.00;;
37781;SDS011;23621;50.878;4.584;2022-10-16T13:49:44;1.20;;;0.93;;
37781;SDS011;23621;50.878;4.584;2022-10-16T13:52:16;2.58;;;1.00;;
37781;SDS011;23621;50.878;4.584;2022-10-16T13:54:46;1.08;;;0.85;;
37781;SDS011;23621;50.878;4.584;2022-10-16T13:57:14;1.33;;;0.90;;
37781;SDS011;23621;50.878;4.584;2022-10-16T13:59:52;1.15;;;1.10;;
37781;SDS011;23621;50.878;4.584;2022-10-16T14:02:33;1.95;;;1.05;;
37781;SDS011;23621;50.878;4.584;2022-10-16T14:05:03;1.30;;;1.00;;
37781;SDS011;23621;50.878;4.584;2022-10-16T14:07:34;1.70;;;1.10;;
37781;SDS011;23621;50.878;4.584;2022-10-16T14:10:05;2.55;;;1.70;;
37781;SDS011;23621;50.878;4.584;2022-10-16T14:12:44;2.90;;;1.30;;
37781;SDS011;23621;50.878;4.584;2022-10-16T14:15:15;1.67;;;1.20;;
37781;SDS011;23621;50.878;4.584;2022-10-16T14:17:45;4.22;;;1.50;;
37781;SDS011;23621;50.878;4.584;2022-10-16T14:20:15;1.67;;;1.27;;
37781;SDS011;23621;50.878;4.584;2022-10-16T14:22:42;2.38;;;1.30;;
37781;SDS011;23621;50.878;4.584;2022-10-16T14:28:31;1.63;;;1.52;;
37781;SDS011;23621;50.878;4.584;2022-10-16T14:30:50;1.95;;;1.10;;
37781;SDS011;23621;50.878;4.584;2022-10-16T14:36:00;1.60;;;1.20;;
37781;SDS011;23621;50.878;4.584;2022-10-16T14:38:37;1.48;;;1.00;;
37781;SDS011;23621;50.878;4.584;2022-10-16T14:41:06;1.98;;;1.30;;
37781;SDS011;23621;50.878;4.584;2022-10-16T14:43:36;1.63;;;1.20;;
37781;SDS011;23621;50.878;4.584;2022-10-16T14:46:08;1.80;;;1.00;;
37781;SDS011;23621;50.878;4.584;2022-10-16T14:48:42;1.10;;;1.02;;
37781;SDS011;23621;50.878;4.584;2022-10-16T14:51:14;2.78;;;1.00;;
37781;SDS011;23621;50.878;4.584;2022-10-16T14:53:42;1.52;;;1.00;;
37781;SDS011;23621;50.878;4.584;2022-10-16T14:56:17;1.52;;;0.93;;
37781;SDS011;23621;50.878;4.584;2022-10-16T14:58:48;2.60;;;1.23;;
37781;SDS011;23621;50.878;4.584;2022-10-16T15:01:16;3.05;;;1.67;;
37781;SDS011;23621;50.878;4.584;2022-10-16T15:03:44;1.40;;;1.00;;
37781;SDS011;23621;50.878;4.584;2022-10-16T15:06:11;1.25;;;1.15;;
37781;SDS011;23621;50.878;4.584;2022-10-16T15:08:39;2.72;;;1.30;;
37781;SDS011;23621;50.878;4.584;2022-10-16T15:11:12;1.30;;;1.10;;
37781;SDS011;23621;50.878;4.584;2022-10-16T15:13:41;1.63;;;1.10;;
37781;SDS011;23621;50.878;4.584;2022-10-16T15:16:12;11.80;;;3.78;;
37781;SDS011;23621;50.878;4.584;2022-10-16T15:18:41;8.23;;;2.22;;
37781;SDS011;23621;50.878;4.584;2022-10-16T15:21:12;19.88;;;4.68;;
37781;SDS011;23621;50.878;4.584;2022-10-16T15:23:48;7.22;;;2.38;;
37781;SDS011;23621;50.878;4.584;2022-10-16T15:26:17;1.48;;;1.35;;
37781;SDS011;23621;50.878;4.584;2022-10-16T15:28:44;1.80;;;1.13;;
37781;SDS011;23621;50.878;4.584;2022-10-16T15:31:11;1.80;;;1.02;;
37781;SDS011;23621;50.878;4.584;2022-10-16T15:33:38;1.40;;;1.10;;
37781;SDS011;23621;50.878;4.584;2022-10-16T15:36:05;1.17;;;1.00;;
37781;SDS011;23621;50.878;4.584;2022-10-16T15:38:32;1.70;;;0.90;;
37781;SDS011;23621;50.878;4.584;2022-10-16T15:40:59;1.55;;;1.30;;
37781;SDS011;23621;50.878;4.584;2022-10-16T15:43:26;2.05;;;1.02;;
37781;SDS011;23621;50.878;4.584;2022-10-16T15:46:01;1.60;;;1.13;;
37781;SDS011;23621;50.878;4.584;2022-10-16T15:48:34;1.95;;;1.10;;
37781;SDS011;23621;50.878;4.584;2022-10-16T15:51:03;1.95;;;1.13;;
37781;SDS011;23621;50.878;4.584;2022-10-16T15:53:31;2.63;;;1.02;;
37781;SDS011;23621;50.878;4.584;2022-10-16T15:56:03;2.08;;;1.42;;
37781;SDS011;23621;50.878;4.584;2022-10-16T15:58:32;1.63;;;1.33;;
37781;SDS011;23621;50.878;4.584;2022-10-16T16:00:59;2.38;;;2.13;;
37781;SDS011;23621;50.878;4.584;2022-10-16T16:03:28;2.78;;;1.40;;
37781;SDS011;23621;50.878;4.584;2022-10-16T16:05:55;1.40;;;1.30;;
37781;SDS011;23621;50.878;4.584;2022-10-16T16:08:23;2.38;;;1.20;;
37781;SDS011;23621;50.878;4.584;2022-10-16T16:13:28;3.08;;;1.27;;
37781;SDS011;23621;50.878;4.584;2022-10-16T16:15:55;4.05;;;1.63;;
37781;SDS011;23621;50.878;4.584;2022-10-16T16:18:22;1.90;;;1.52;;
37781;SDS011;23621;50.878;4.584;2022-10-16T16:20:50;2.97;;;1.33;;
37781;SDS011;23621;50.878;4.584;2022-10-16T16:23:18;1.27;;;1.20;;
37781;SDS011;23621;50.878;4.584;2022-10-16T16:26:01;2.05;;;1.50;;
37781;SDS011;23621;50.878;4.584;2022-10-16T16:28:32;3.10;;;1.60;;
37781;SDS011;23621;50.878;4.584;2022-10-16T16:30:59;2.88;;;1.58;;
37781;SDS011;23621;50.878;4.584;2022-10-16T16:33:26;6.20;;;2.20;;
37781;SDS011;23621;50.878;4.584;2022-10-16T16:35:59;2.42;;;1.67;;
37781;SDS011;23621;50.878;4.584;2022-10-16T16:38:28;4.07;;;2.08;;
37781;SDS011;23621;50.878;4.584;2022-10-16T16:40:55;3.30;;;1.55;;
37781;SDS011;23621;50.878;4.584;2022-10-16T16:43:26;7.55;;;3.05;;
37781;SDS011;23621;50.878;4.584;2022-10-16T16:45:53;1.70;;;1.50;;
37781;SDS011;23621;50.878;4.584;2022-10-16T16:48:20;1.83;;;1.42;;
37781;SDS011;23621;50.878;4.584;2022-10-16T16:50:48;1.60;;;1.50;;
37781;SDS011;23621;50.878;4.584;2022-10-16T16:53:15;2.17;;;1.40;;
37781;SDS011;23621;50.878;4.584;2022-10-16T16:55:41;1.77;;;1.58;;
37781;SDS011;23621;50.878;4.584;2022-10-16T16:58:08;3.17;;;2.40;;
37781;SDS011;23621;50.878;4.584;2022-10-16T17:00:35;1.80;;;1.70;;
37781;SDS011;23621;50.878;4.584;2022-10-16T17:03:02;3.47;;;2.30;;
37781;SDS011;23621;50.878;4.584;2022-10-16T17:05:29;5.32;;;2.10;;
37781;SDS011;23621;50.878;4.584;2022-10-16T17:07:56;4.00;;;2.00;;
37781;SDS011;23621;50.878;4.584;2022-10-16T17:10:22;5.07;;;3.70;;
37781;SDS011;23621;50.878;4.584;2022-10-16T17:12:49;3.85;;;3.38;;